SBOSBO SJC / KSJC
Speedbird OnlineSpeedbird Online SJC / KSJC

Norman Y. Mineta San Jose International Airport
02:01 15.5°C

Location San Jose, United States
Latitude: 37.362598
Longitude: -121.929001
Local Time 02:01 on 18 Jul 2024
UTC -7 hours (America/Los_Angeles)
Currency £1 equals USD 1.30
METAR KSJC 180853Z AUTO 33006KT 10SM CLR 17/13 A3000 RMK AO2 SLP157 T01670133 58004
TAF KSJC 180521Z 1806/1906 32004KT P6SM FEW015 FM181200 31002KT P6SM BKN015 FM181600 32004KT P6SM FEW015 FM182000 32009KT P6SM SKC FM190400 30005KT P6SM SKC
Weather As Of 18 Jul 2024 02:01
Description Few clouds
Wind 11 km/h from North (20°)
Cloud Cover 20%
Precipitation Rain: none, Snow: none
Sunrise 06:01
Sunset 20:26
NOTAM 3 active NOTAM
Web Airport Website | Wikipedia
Codes IATA: SJC
ICAO: KSJC
Altitude 19 Meter / 62 Feet
Distance 8,644 KM / 5,371 Miles
from London.
Runways
RunwayLength (m)Surface
111402Asphalt
12L3353Concrete
12R3353Concrete
291402Asphalt
30L3353Concrete
30R3353Concrete
Radio
TypeDescriptionFrequency
APPNORCAL APP120.1
APPNORCAL APP33.82
ATISATIS126.95
CLDCLNC DEL118
CTAFCTAF124
DEPNORCAL DEP121.3
GNDGND121.7
TWRTWR124
Live ATC



Support Speedbird Online

© 2017-2024 Speedbird Online